KMIV

Millville Municipal Airport

Millville, New Jersey, USA
METAR KMIV 140828Z AUTO 00000KT 1 3/4SM BR FEW004 BKN009 OVC075 03/03 A3040 RMK AO2 T00280028
Observed Flight Rules
Dec-14 @ 08:28 UTC (23 minutes ago) Instrument Flight Rules
Visibility Clouds Conditions
1 3/4 miles
  • Few at 400' AGL
  • Broken at 900' AGL
  • Overcast at 7,500' AGL
  • Mist
Temperatures Readings
Current 3°C / 37°F
Dewpoint 3°C / 37°F
Humidity 100%
Altimeter 30.4" Hg
Pressure 1029 hPa
Elevation 23
METAR KMIV 140828Z AUTO 00000KT 1 3/4SM BR FEW004 BKN009 OVC075 03/03 A3040 RMK AO2 T00280028
Observed Flight Rules
Dec-14 @ 08:28 UTC
(23 minutes ago)
IFR
Clouds
  • Few at 400' AGL
  • Broken at 900' AGL
  • Overcast at 7,500' AGL
Conditions
  • Mist
Temperature Dewpoint
3°C / 37°F 3°C / 37°F
Humidity Altimeter Pressure
100% 30.4" Hg 1029 hPa